Ana Sayfa
METAR-TAF:

METAR-TAF

Havaalanları :

Francistown, Botsvana

Enlem: 21-13S, Boylam: 027-30E, yükseklik: 1001 m

Güncel hava durumu gözlemi

Rapor saat 19:00 UTC de 6 saat ve 56 dakika önce yapıldı.
Rüzgar doğu/güneydoğudan 6 kt
Sıcaklık 15°C
Nem 44%
Basınç 1026 hPa
Görüş mesafesi 10 km veya daha fazla
1500 m altında bulut yok ve kümülonimbus yok

METAR: FBFT 251900Z 12006KT CAVOK 15/03 Q1026

Saat: 03:56 (01:56 UTC)

Tahmin

Rapor saat 21:00 UTC de 4 saat ve 56 dakika önce yapıldı.
Ayın 26'si saat 00 UTC'den ayın 26'si saat 09 UTC'ye kadar geçerli Tahmin
Rüzgar doğu/kuzeydoğudan 15 kt
Görüş mesafesi 10 km veya daha fazla
1500 m altında bulut yok ve kümülonimbus yok

TAF: FBFT 252100Z 2600/2609 06015KT CAVOK

4.000'den fazla havaalanı için hava durumu gözlemleri ve tahminleri (METAR ve TAF raporları).

Kullanılabilir istasyonlar harita üzerinde sarı ve kırmızı noktalarla gösterilir.

İstasyonun adını görmek için fareyi noktanın üzerinde gezdirin.

Sonrasında hava gözlem ve tahminlerini görmek için tıklayın.

Haritayı değiştirmek için: yaklaştırmak için siyah artı işaretli yeşil düğmeye ve uzaklaştırmak için de eksi işaretli düğmeye hızla tıklayın; bitişik haritalar için yeşil okları kullanın.


METAR-TAF: